< Typhoon 201822 2018 Season Typhoon 201824 >
Typhoon 201823 (BARIJAT)
General InformationTrack Information on Google MapsDetailed Wind InformationForecast History on Google MapsAccess Analytics MapList of All Images || NewsDisaster Info.WeblogTrackbackTyphoon FrontTwiphoonTyphoon Now!Typhoon ImaginationJMA Disaster Info. XMLResourceGoogle EarthGE AnimationAtom FeedGeoJSON
Detalied Best Track (Time Zone = UTC)
Year Month Day Hour Lat. Long. Pressure (hPa) Wind (kt) Class Image Chart
2018 9 8 06 20.5 121.8 1006 0 2 Image Chart
2018 9 8 12 20.9 122.3 1008 0 2 Image Chart
2018 9 8 18 21.1 122.5 1006 0 2 Image Chart
2018 9 9 00 21.3 122.8 1006 0 2 Image Chart
2018 9 9 06 21.4 123.0 1006 0 2 Image Chart
2018 9 9 12 21.7 122.6 1008 0 2 Image Chart
2018 9 9 18 21.7 122.2 1006 0 2 Image Chart
2018 9 10 00 21.5 121.8 1006 0 2 Image Chart
2018 9 10 06 21.3 121.0 1006 0 2 Image Chart
2018 9 10 12 21.2 120.2 1006 0 2 Image Chart
2018 9 10 18 21.1 119.5 1004 0 2 Image Chart
2018 9 11 00 20.9 118.7 1000 35 3 Image Chart
2018 9 11 06 20.7 118.0 998 40 3 Image Chart
2018 9 11 12 20.4 117.4 998 40 3 Image Chart
2018 9 11 18 20.5 116.4 998 40 3 Image Chart
2018 9 12 00 20.7 115.4 998 40 3 Image Chart
2018 9 12 06 20.9 114.5 998 40 3 Image Chart
2018 9 12 12 20.9 113.5 998 40 3 Image Chart
2018 9 12 18 20.8 112.1 998 40 3 Image Chart
2018 9 13 00 21.5 110.6 1002 35 3 Image Chart
2018 9 13 06 22.0 109.9 1006 0 2 Image Chart
Japan Meteorological Agency Best Track Data | Correction Date : 2018-11-02
< Typhoon 201822 2018 Season Typhoon 201824 >

Help